createdAt,value
2018-06-05T00:00:31.255Z,100031.55
2018-06-05T00:02:59.326Z,100022.63
2018-06-05T00:05:27.390Z,100027.00
2018-06-05T00:07:55.475Z,100022.93
2018-06-05T00:10:23.526Z,100023.52
2018-06-05T00:12:51.771Z,100025.44
2018-06-05T00:15:19.851Z,100023.27
2018-06-05T00:17:47.939Z,100027.68
2018-06-05T00:20:16.008Z,100022.48
2018-06-05T00:22:44.074Z,100027.41
2018-06-05T00:25:12.152Z,100024.77
2018-06-05T00:27:40.220Z,100026.38
2018-06-05T00:30:08.279Z,100028.06
2018-06-05T00:32:36.385Z,100019.61
2018-06-05T00:35:04.447Z,100017.67
2018-06-05T00:37:32.526Z,100026.42
2018-06-05T00:40:00.603Z,100025.05
2018-06-05T00:42:28.667Z,100032.16
2018-06-05T00:44:56.724Z,100029.47
2018-06-05T00:47:24.787Z,100027.03
2018-06-05T00:49:52.885Z,100025.41
2018-06-05T00:52:20.951Z,100023.52
2018-06-05T00:54:49.015Z,100028.14
2018-06-05T00:57:17.286Z,100029.50
2018-06-05T00:59:45.367Z,100030.59
2018-06-05T01:02:13.616Z,100020.22
2018-06-05T01:04:41.658Z,100027.59
2018-06-05T01:07:09.746Z,100025.70
2018-06-05T01:09:37.800Z,100030.31
2018-06-05T01:12:06.172Z,100025.97
2018-06-05T01:14:34.300Z,100018.34
2018-06-05T01:17:02.381Z,100024.38
2018-06-05T01:19:30.453Z,100020.55
2018-06-05T01:21:58.788Z,100006.94
2018-06-05T01:24:27.056Z,100012.41
2018-06-05T01:26:55.162Z,100018.11
2018-06-05T01:29:23.218Z,100020.28
2018-06-05T01:31:51.282Z,100016.48
2018-06-05T01:34:19.343Z,100020.02
2018-06-05T01:36:47.433Z,100021.66
2018-06-05T01:39:15.511Z,100023.03
2018-06-05T01:41:43.666Z,100025.45
2018-06-05T01:44:11.776Z,100025.75
2018-06-05T01:46:39.903Z,100021.40
2018-06-05T01:49:08.002Z,100013.75
2018-06-05T01:51:36.055Z,100024.39
2018-06-05T01:54:04.131Z,100024.92
2018-06-05T01:56:32.197Z,100018.40
2018-06-05T01:59:00.251Z,100023.82
2018-06-05T02:01:28.315Z,100019.77
2018-06-05T02:03:56.371Z,100026.01
2018-06-05T02:06:24.432Z,100026.55
2018-06-05T02:08:52.490Z,100030.09
2018-06-05T02:11:20.571Z,100030.11
2018-06-05T02:13:48.706Z,100024.38
2018-06-05T02:16:16.777Z,100039.60
2018-06-05T02:18:44.868Z,100033.63
2018-06-05T02:21:12.950Z,100038.27
2018-06-05T02:23:41.496Z,100044.80
2018-06-05T02:26:09.544Z,100043.70
2018-06-05T02:28:37.637Z,100047.48
2018-06-05T02:31:05.679Z,100052.14
2018-06-05T02:33:33.767Z,100052.40
2018-06-05T02:36:01.811Z,100045.81
2018-06-05T02:38:29.891Z,100050.98
2018-06-05T02:40:57.947Z,100046.35
2018-06-05T02:43:26.075Z,100045.28
2018-06-05T02:45:54.275Z,100046.92
2018-06-05T02:48:22.344Z,100051.00
2018-06-05T02:50:50.404Z,100051.50
2018-06-05T02:53:18.479Z,100047.69
2018-06-05T02:55:46.555Z,100047.42
2018-06-05T02:58:14.652Z,100049.06
2018-06-05T03:00:42.725Z,100051.22
2018-06-05T03:03:11.045Z,100049.88
2018-06-05T03:05:39.247Z,100045.51
2018-06-05T03:08:07.314Z,100048.22
2018-06-05T03:10:35.388Z,100049.03
2018-06-05T03:13:03.480Z,100060.15
2018-06-05T03:15:33.315Z,100054.70
2018-06-05T03:18:01.401Z,100056.33
2018-06-05T03:20:29.471Z,100063.94
2018-06-05T03:22:57.542Z,100062.04
2018-06-05T03:25:25.610Z,100063.11
2018-06-05T03:27:53.723Z,100061.22
2018-06-05T03:30:21.858Z,100066.12
2018-06-05T03:32:50.068Z,100073.94
2018-06-05T03:35:18.143Z,100067.42
2018-06-05T03:37:46.414Z,100067.42
2018-06-05T03:40:14.519Z,100073.38
2018-06-05T03:42:42.611Z,100083.69
2018-06-05T03:45:10.733Z,100079.04
2018-06-05T03:47:38.902Z,100078.23
2018-06-05T03:50:06.994Z,100084.23
2018-06-05T03:52:35.106Z,100081.75
2018-06-05T03:55:03.231Z,100083.64
2018-06-05T03:57:31.313Z,100087.44
2018-06-05T03:59:59.347Z,100084.74
2018-06-05T04:02:27.408Z,100090.70
2018-06-05T04:04:55.519Z,100079.58
2018-06-05T04:07:23.759Z,100080.39
2018-06-05T04:09:51.962Z,100078.48
2018-06-05T04:12:20.027Z,100081.20
2018-06-05T04:14:48.108Z,100090.14
2018-06-05T04:17:16.357Z,100085.27
2018-06-05T04:19:44.464Z,100086.02
2018-06-05T04:22:12.521Z,100094.27
2018-06-05T04:24:40.582Z,100096.66
2018-06-05T04:27:08.708Z,100092.86
2018-06-05T04:29:36.751Z,100096.08
2018-06-05T04:32:04.850Z,100095.03
2018-06-05T04:34:32.910Z,100094.70
2018-06-05T04:37:00.960Z,100095.05
2018-06-05T04:39:29.228Z,100096.67
2018-06-05T04:41:57.306Z,100098.58
2018-06-05T04:44:25.385Z,100103.46
2018-06-05T04:46:53.472Z,100099.39
2018-06-05T04:49:21.538Z,100102.66
2018-06-05T04:51:49.667Z,100108.91
2018-06-05T04:54:17.771Z,100102.91
2018-06-05T04:56:46.015Z,100107.78
2018-06-05T04:59:14.119Z,100101.04
2018-06-05T05:01:42.176Z,100109.72
2018-06-05T05:04:10.428Z,100110.83
2018-06-05T05:06:38.506Z,100114.94
2018-06-05T05:09:07.261Z,100109.25
2018-06-05T05:11:35.565Z,100119.57
2018-06-05T05:14:03.843Z,100117.97
2018-06-05T05:16:31.967Z,100120.73
2018-06-05T05:19:00.043Z,100121.73
2018-06-05T05:21:28.111Z,100123.69
2018-06-05T05:23:56.253Z,100123.20
2018-06-05T05:26:24.337Z,100115.33
2018-06-05T05:28:52.427Z,100118.62
2018-06-05T05:31:20.670Z,100122.97
2018-06-05T05:33:48.743Z,100124.59
2018-06-05T05:36:16.851Z,100133.29
2018-06-05T05:38:44.938Z,100133.58
2018-06-05T05:41:13.074Z,100132.25
2018-06-05T05:43:41.152Z,100134.77
2018-06-05T05:46:09.217Z,100139.42
2018-06-05T05:48:37.312Z,100144.06
2018-06-05T05:51:05.399Z,100140.02
2018-06-05T05:53:33.467Z,100145.43
2018-06-05T05:56:01.532Z,100147.09
2018-06-05T05:58:29.668Z,100141.66
2018-06-05T06:00:57.724Z,100143.00
2018-06-05T06:03:26.863Z,100147.08
2018-06-05T06:05:54.918Z,100153.06
2018-06-05T06:08:22.987Z,100147.08
2018-06-05T06:10:51.122Z,100144.09
2018-06-05T06:13:19.149Z,100149.52
2018-06-05T06:15:47.210Z,100149.00
2018-06-05T06:18:15.292Z,100155.52
2018-06-05T06:20:43.466Z,100154.14
2018-06-05T06:23:11.519Z,100152.78
2018-06-05T06:25:39.601Z,100153.61
2018-06-05T06:28:07.832Z,100152.80
2018-06-05T06:30:35.911Z,100151.17
2018-06-05T06:33:03.985Z,100146.27
2018-06-05T06:35:32.067Z,100152.25
2018-06-05T06:38:00.132Z,100152.27
2018-06-05T06:40:28.223Z,100153.09
2018-06-05T06:42:56.268Z,100156.89
2018-06-05T06:45:24.332Z,100152.55
2018-06-05T06:50:19.576Z,100164.52
2018-06-05T06:52:47.795Z,100160.43
2018-06-05T06:55:15.873Z,100162.34
2018-06-05T06:57:43.930Z,100166.98
2018-06-05T07:02:39.104Z,100157.98
2018-06-05T07:05:07.187Z,100165.09
2018-06-05T07:07:35.299Z,100162.91
2018-06-05T07:10:03.501Z,100161.55
2018-06-05T07:12:31.602Z,100156.91
2018-06-05T07:14:59.664Z,100155.53
2018-06-05T07:17:27.740Z,100160.44
2018-06-05T07:19:55.806Z,100157.70
2018-06-05T07:22:23.877Z,100164.81
2018-06-05T07:24:51.931Z,100167.51
2018-06-05T07:27:19.992Z,100160.17
2018-06-05T07:29:48.111Z,100152.83
2018-06-05T07:32:16.187Z,100151.99
2018-06-05T07:34:44.253Z,100150.89
2018-06-05T07:37:12.326Z,100157.66
2018-06-05T07:39:40.395Z,100154.61
2018-06-05T07:42:08.494Z,100157.91
2018-06-05T07:44:36.607Z,100157.91
2018-06-05T07:47:04.906Z,100158.19
2018-06-05T07:49:32.987Z,100161.17
2018-06-05T07:52:01.035Z,100154.33
2018-06-05T07:54:29.090Z,100152.41
2018-06-05T07:56:57.173Z,100154.80
2018-06-05T07:59:25.267Z,100157.48
2018-06-05T08:01:53.336Z,100149.58
2018-06-05T08:04:21.465Z,100159.13
2018-06-05T08:06:49.479Z,100149.05
2018-06-05T08:09:17.571Z,100154.69
2018-06-05T08:11:45.693Z,100151.19
2018-06-05T08:14:13.771Z,100153.61
2018-06-05T08:16:41.872Z,100159.36
2018-06-05T08:19:09.979Z,100146.75
2018-06-05T08:21:38.059Z,100149.76
2018-06-05T08:24:06.131Z,100143.48
2018-06-05T08:26:44.973Z,100148.86
2018-06-05T08:29:13.131Z,100152.90
2018-06-05T08:31:41.282Z,100146.88
2018-06-05T08:34:09.503Z,100146.56
2018-06-05T08:36:37.747Z,100152.49
2018-06-05T08:39:07.635Z,100151.96
2018-06-05T08:41:35.848Z,100151.48
2018-06-05T08:44:04.320Z,100150.59
2018-06-05T08:46:32.496Z,100149.36
2018-06-05T08:49:00.680Z,100149.03
2018-06-05T08:51:28.868Z,100153.36
2018-06-05T08:53:57.044Z,100153.96
2018-06-05T08:56:25.218Z,100154.06
2018-06-05T08:58:53.440Z,100153.17
2018-06-05T09:01:21.598Z,100153.16
2018-06-05T09:03:49.757Z,100155.77
2018-06-05T09:06:18.071Z,100152.10
2018-06-05T09:08:46.225Z,100155.70
2018-06-05T09:11:14.374Z,100156.03
2018-06-05T09:13:42.596Z,100147.25
2018-06-05T09:16:10.794Z,100154.22
2018-06-05T09:18:38.995Z,100157.04
2018-06-05T09:21:07.182Z,100154.06
2018-06-05T09:23:35.420Z,100157.09
2018-06-05T09:26:03.607Z,100157.59
2018-06-05T09:28:31.807Z,100163.19
2018-06-05T09:31:00.045Z,100162.37
2018-06-05T09:33:28.207Z,100159.43
2018-06-05T09:35:56.365Z,100165.63
2018-06-05T09:38:24.620Z,100163.37
2018-06-05T09:40:52.816Z,100149.17
2018-06-05T09:43:20.989Z,100157.60
2018-06-05T09:45:49.171Z,100158.29
2018-06-05T09:48:17.351Z,100158.67
2018-06-05T09:50:45.927Z,100153.22
2018-06-05T09:53:14.087Z,100155.23
2018-06-05T09:55:42.231Z,100152.05
2018-06-05T09:58:10.498Z,100152.81
2018-06-05T10:00:43.845Z,100157.22
2018-06-05T10:03:12.019Z,100146.38
2018-06-05T10:05:40.235Z,100148.78
2018-06-05T10:08:08.495Z,100142.20
2018-06-05T10:10:36.731Z,100147.86
2018-06-05T10:13:04.943Z,100143.27
2018-06-05T10:15:33.108Z,100139.70
2018-06-05T10:18:01.296Z,100141.56
2018-06-05T10:20:29.526Z,100138.63
2018-06-05T10:22:57.691Z,100135.13
2018-06-05T10:25:25.931Z,100131.70
2018-06-05T10:27:54.129Z,100134.41
2018-06-05T10:30:22.246Z,100134.09
2018-06-05T10:32:50.391Z,100136.53
2018-06-05T10:35:19.214Z,100128.48
2018-06-05T10:37:47.377Z,100125.91
2018-06-05T10:40:15.626Z,100119.91
2018-06-05T10:42:43.767Z,100111.84
2018-06-05T10:45:11.946Z,100116.23
2018-06-05T10:47:40.178Z,100113.99
2018-06-05T10:50:08.323Z,100102.52
2018-06-05T10:52:36.506Z,100105.21
2018-06-05T10:55:04.794Z,100105.63
2018-06-05T10:57:33.025Z,100108.02
2018-06-05T11:00:01.272Z,100099.61
2018-06-05T11:02:29.457Z,100103.32
2018-06-05T11:04:57.634Z,100097.34
2018-06-05T11:07:25.854Z,100103.11
2018-06-05T11:09:54.751Z,100096.66
2018-06-05T11:12:23.773Z,100096.16
2018-06-05T11:14:52.738Z,100096.16
2018-06-05T11:17:20.899Z,100090.89
2018-06-05T11:19:49.256Z,100089.20
2018-06-05T11:22:17.887Z,100089.79
2018-06-05T11:24:46.028Z,100089.61
2018-06-05T11:27:14.178Z,100085.86
2018-06-05T11:29:42.326Z,100086.23
2018-06-05T11:32:10.464Z,100077.70
2018-06-05T11:34:38.670Z,100088.34
2018-06-05T11:37:06.836Z,100088.02
2018-06-05T11:39:35.090Z,100076.91
2018-06-05T11:42:03.232Z,100077.80
2018-06-05T11:44:31.457Z,100070.30
2018-06-05T11:46:59.677Z,100069.43
2018-06-05T11:49:27.805Z,100063.47
2018-06-05T11:51:55.967Z,100070.53
2018-06-05T11:54:24.153Z,100063.16
2018-06-05T11:56:52.377Z,100070.03
2018-06-05T11:59:20.508Z,100059.88
2018-06-05T12:01:48.736Z,100057.95
2018-06-05T12:04:17.174Z,100061.53
2018-06-05T12:06:46.518Z,100057.09
2018-06-05T12:09:14.730Z,100055.22
2018-06-05T12:11:42.907Z,100046.77
2018-06-05T12:14:11.100Z,100050.69
2018-06-05T12:16:39.230Z,100057.37
2018-06-05T12:19:07.423Z,100048.64
2018-06-05T12:21:36.671Z,100052.27
2018-06-05T12:24:04.857Z,100046.50
2018-06-05T12:26:33.030Z,100036.45
2018-06-05T12:29:01.192Z,100033.41
2018-06-05T12:31:29.393Z,100029.67
2018-06-05T12:33:57.535Z,100033.58
2018-06-05T12:36:25.679Z,100035.89
2018-06-05T12:38:53.945Z,100032.16
2018-06-05T12:41:22.920Z,100029.51
2018-06-05T12:43:51.100Z,100020.27
2018-06-05T12:46:19.278Z,100023.19
2018-06-05T12:48:48.204Z,100025.11
2018-06-05T12:51:16.360Z,100023.67
2018-06-05T12:53:45.449Z,100018.34
2018-06-05T12:56:14.204Z,100010.64
2018-06-05T12:58:43.266Z,100016.80
2018-06-05T13:01:11.404Z,100020.34
2018-06-05T13:03:39.582Z,100012.12
2018-06-05T13:06:07.775Z,100006.95
2018-06-05T13:08:35.912Z,100014.26
2018-06-05T13:11:04.551Z,100006.76
2018-06-05T13:13:33.039Z,100005.88
2018-06-05T13:16:01.224Z,99996.64
2018-06-05T13:18:29.420Z,100003.42
2018-06-05T13:20:57.606Z,100007.97
2018-06-05T13:23:26.517Z,100008.69
2018-06-05T13:25:55.307Z,99998.41
2018-06-05T13:28:23.599Z,100001.55
2018-06-05T13:30:52.367Z,100000.86
2018-06-05T13:33:20.540Z,99994.67
2018-06-05T13:35:48.775Z,99994.28
2018-06-05T13:38:17.511Z,99998.34
2018-06-05T13:40:46.281Z,99992.28
2018-06-05T13:43:14.408Z,99998.77
2018-06-05T13:45:42.658Z,99990.25
2018-06-05T13:48:10.812Z,99987.62
2018-06-05T13:50:39.644Z,99992.86
2018-06-05T13:53:07.811Z,99996.01
2018-06-05T13:55:36.001Z,99993.75
2018-06-05T13:58:04.211Z,99993.21
2018-06-05T14:00:32.388Z,99987.86
2018-06-05T14:03:00.563Z,99996.19
2018-06-05T14:05:28.688Z,99991.41
2018-06-05T14:07:56.832Z,99989.97
2018-06-05T14:10:25.073Z,99991.48
2018-06-05T14:12:53.196Z,99991.48
2018-06-05T14:15:21.331Z,99994.70
2018-06-05T14:17:49.474Z,99991.25
2018-06-05T14:20:17.595Z,99985.91
2018-06-05T14:22:45.739Z,99983.98
2018-06-05T14:25:13.870Z,99984.78
2018-06-05T14:27:42.012Z,99977.48
2018-06-05T14:30:10.160Z,99984.06
2018-06-05T14:32:38.310Z,99988.27
2018-06-05T14:35:06.475Z,99992.06
2018-06-05T14:37:34.608Z,99979.61
2018-06-05T14:40:02.754Z,99974.44
2018-06-05T14:42:30.891Z,99975.31
2018-06-05T14:44:59.055Z,99966.42
2018-06-05T14:47:27.179Z,99972.11
2018-06-05T14:49:55.339Z,99968.63
2018-06-05T14:52:23.484Z,99967.31
2018-06-05T14:54:51.623Z,99963.59
2018-06-05T14:57:19.772Z,99965.70
2018-06-05T14:59:47.911Z,99972.58
2018-06-05T15:02:16.091Z,99967.30
2018-06-05T15:04:44.228Z,99949.81
2018-06-05T15:07:12.363Z,99949.90
2018-06-05T15:09:40.981Z,99953.55
2018-06-05T15:12:09.158Z,99948.77
2018-06-05T15:14:37.343Z,99953.34
2018-06-05T15:17:05.467Z,99951.00
2018-06-05T15:19:33.644Z,99955.36
2018-06-05T15:22:01.805Z,99953.34
2018-06-05T15:24:29.946Z,99953.41
2018-06-05T15:26:58.116Z,99946.75
2018-06-05T15:29:26.265Z,99943.35
2018-06-05T15:31:54.395Z,99945.20
2018-06-05T15:34:22.592Z,99946.25
2018-06-05T15:36:50.736Z,99946.50
2018-06-05T15:39:18.955Z,99950.27
2018-06-05T15:41:47.116Z,99942.70
2018-06-05T15:44:15.275Z,99937.48
2018-06-05T15:46:43.434Z,99939.37
2018-06-05T15:49:11.582Z,99932.00
2018-06-05T15:51:39.712Z,99939.86
2018-06-05T15:54:07.855Z,99932.27
2018-06-05T15:56:36.023Z,99933.39
2018-06-05T15:59:04.212Z,99946.03
2018-06-05T16:01:32.315Z,99938.18
2018-06-05T16:04:00.478Z,99935.73
2018-06-05T16:06:28.666Z,99937.77
2018-06-05T16:08:56.811Z,99939.63
2018-06-05T16:11:24.962Z,99940.17
2018-06-05T16:13:53.126Z,99942.71
2018-06-05T16:16:21.268Z,99939.94
2018-06-05T16:18:49.444Z,99934.15
2018-06-05T16:21:17.634Z,99942.55
2018-06-05T16:23:45.761Z,99940.42
2018-06-05T16:26:13.955Z,99943.11
2018-06-05T16:28:42.099Z,99944.63
2018-06-05T16:31:10.264Z,99943.59
2018-06-05T16:33:38.432Z,99942.81
2018-06-05T16:36:06.567Z,99937.46
2018-06-05T16:38:34.696Z,99940.70
2018-06-05T16:41:02.841Z,99933.92
2018-06-05T16:43:31.012Z,99938.02
2018-06-05T16:45:59.147Z,99937.11
2018-06-05T16:48:27.275Z,99940.50
2018-06-05T16:50:55.420Z,99941.09
2018-06-05T16:53:23.556Z,99929.23
2018-06-05T16:55:51.985Z,99932.87
2018-06-05T16:58:20.158Z,99933.03
2018-06-05T17:00:48.291Z,99925.28
2018-06-05T17:03:16.428Z,99923.91
2018-06-05T17:05:44.650Z,99925.48
2018-06-05T17:08:12.876Z,99926.75
2018-06-05T17:10:41.038Z,99928.50
2018-06-05T17:13:09.189Z,99920.98
2018-06-05T17:15:37.327Z,99932.10
2018-06-05T17:18:05.461Z,99930.96
2018-06-05T17:20:33.605Z,99933.58
2018-06-05T17:23:01.755Z,99930.98
2018-06-05T17:25:29.915Z,99934.31
2018-06-05T17:27:58.257Z,99932.37
2018-06-05T17:30:26.447Z,99931.37
2018-06-05T17:32:54.618Z,99927.36
2018-06-05T17:35:22.967Z,99931.14
2018-06-05T17:37:51.099Z,99921.12
2018-06-05T17:40:19.351Z,99927.56
2018-06-05T17:42:47.442Z,99930.08
2018-06-05T17:45:15.563Z,99928.67
2018-06-05T17:47:43.726Z,99937.34
2018-06-05T17:50:11.875Z,99933.15
2018-06-05T17:52:40.006Z,99931.94
2018-06-05T17:55:08.153Z,99930.86
2018-06-05T17:57:36.327Z,99932.83
2018-06-05T18:00:04.467Z,99929.87
2018-06-05T18:02:32.719Z,99929.11
2018-06-05T18:05:00.874Z,99930.55
2018-06-05T18:07:29.024Z,99925.87
2018-06-05T18:09:57.170Z,99935.07
2018-06-05T18:12:25.349Z,99939.72
2018-06-05T18:14:53.437Z,99935.77
2018-06-05T18:17:21.559Z,99940.86
2018-06-05T18:19:49.770Z,99945.31
2018-06-05T18:22:17.870Z,99944.55
2018-06-05T18:24:46.088Z,99950.77
2018-06-05T18:27:14.248Z,99952.53
2018-06-05T18:29:42.426Z,99947.31
2018-06-05T18:32:10.587Z,99950.07
2018-06-05T18:34:38.735Z,99949.26
2018-06-05T18:37:06.966Z,99956.88
2018-06-05T18:39:36.843Z,99960.27
2018-06-05T18:42:05.012Z,99966.77
2018-06-05T18:44:33.143Z,99957.97
2018-06-05T18:47:01.268Z,99961.75
2018-06-05T18:49:29.554Z,99967.12
2018-06-05T18:51:57.704Z,99968.78
2018-06-05T18:54:25.855Z,99970.93
2018-06-05T18:56:54.002Z,99970.00
2018-06-05T18:59:22.156Z,99966.47
2018-06-05T19:01:50.283Z,99971.50
2018-06-05T19:04:18.447Z,99978.30
2018-06-05T19:06:46.580Z,99982.02
2018-06-05T19:09:14.728Z,99987.73
2018-06-05T19:11:42.859Z,99999.20
2018-06-05T19:14:11.007Z,99999.71
2018-06-05T19:16:39.172Z,100000.27
2018-06-05T19:19:07.408Z,100001.42
2018-06-05T19:21:35.556Z,100009.05
2018-06-05T19:24:03.709Z,100013.86
2018-06-05T19:26:31.871Z,100014.23
2018-06-05T19:29:00.027Z,100027.75
2018-06-05T19:31:28.163Z,100031.20
2018-06-05T19:33:56.296Z,100033.73
2018-06-05T19:36:24.480Z,100035.30
2018-06-05T19:38:52.649Z,100034.05
2018-06-05T19:41:20.852Z,100039.67
2018-06-05T19:43:48.932Z,100036.45
2018-06-05T19:46:17.086Z,100047.20
2018-06-05T19:48:45.225Z,100041.27
2018-06-05T19:51:13.362Z,100040.84
2018-06-05T19:53:41.478Z,100050.73
2018-06-05T19:56:09.623Z,100054.59
2018-06-05T19:58:37.750Z,100062.30
2018-06-05T20:01:05.942Z,100068.63
2018-06-05T20:03:34.147Z,100072.33
2018-06-05T20:06:02.363Z,100079.77
2018-06-05T20:08:31.153Z,100083.05
2018-06-05T20:10:59.455Z,100082.58
2018-06-05T20:13:27.697Z,100089.17
2018-06-05T20:15:56.049Z,100091.37
2018-06-05T20:18:24.243Z,100092.52
2018-06-05T20:20:52.484Z,100095.01
2018-06-05T20:23:20.763Z,100104.09
2018-06-05T20:25:49.087Z,100111.50
2018-06-05T20:28:20.467Z,100117.52
2018-06-05T20:30:49.458Z,100116.26
2018-06-05T20:33:17.836Z,100125.80
2018-06-05T20:35:46.093Z,100136.23
2018-06-05T20:38:14.748Z,100126.98
2018-06-05T20:40:43.021Z,100130.62
2018-06-05T20:43:11.269Z,100135.32
2018-06-05T20:46:13.768Z,100137.75
2018-06-05T20:49:00.191Z,100142.46
2018-06-05T20:51:28.600Z,100143.93
2018-06-05T20:53:56.883Z,100146.36
2018-06-05T20:56:55.010Z,100150.76
2018-06-05T20:59:32.105Z,100155.45
2018-06-05T21:02:00.344Z,100154.64
2018-06-05T21:04:28.613Z,100154.92
2018-06-05T21:06:56.925Z,100153.86
2018-06-05T21:09:27.555Z,100155.27
2018-06-05T21:11:55.838Z,100149.30
2018-06-05T21:14:24.157Z,100155.28
2018-06-05T21:16:52.458Z,100152.85
2018-06-05T21:19:20.757Z,100156.40
2018-06-05T21:21:49.025Z,100156.70
2018-06-05T21:24:17.300Z,100162.16
2018-06-05T21:26:45.602Z,100156.70
2018-06-05T21:29:14.040Z,100164.34
2018-06-05T21:31:42.243Z,100154.27
2018-06-05T21:34:10.504Z,100157.83
2018-06-05T21:36:38.846Z,100158.40
2018-06-05T21:39:09.269Z,100157.04
2018-06-05T21:41:37.823Z,100156.22
2018-06-05T21:44:06.737Z,100156.50
2018-06-05T21:46:35.026Z,100154.89
2018-06-05T21:49:03.720Z,100160.59
2018-06-05T21:51:32.606Z,100161.12
2018-06-05T21:54:00.912Z,100160.31
2018-06-05T21:56:29.134Z,100161.14
2018-06-05T21:58:57.398Z,100155.97
2018-06-05T22:01:25.652Z,100160.38
2018-06-05T22:03:53.886Z,100157.91
2018-06-05T22:06:24.637Z,100154.64
2018-06-05T22:08:52.980Z,100157.08
2018-06-05T22:11:21.340Z,100153.31
2018-06-05T22:13:49.784Z,100152.48
2018-06-05T22:16:18.038Z,100153.31
2018-06-05T22:18:46.381Z,100149.24
2018-06-05T22:21:14.522Z,100162.56
2018-06-05T22:23:42.663Z,100163.41
2018-06-05T22:26:10.828Z,100160.94
2018-06-05T22:28:39.277Z,100156.60
2018-06-05T22:31:07.479Z,100156.34
2018-06-05T22:33:35.933Z,100160.98
2018-06-05T22:36:04.337Z,100156.92
2018-06-05T22:38:38.927Z,100170.80
2018-06-05T22:41:07.336Z,100161.55
2018-06-05T22:43:36.474Z,100168.91
2018-06-05T22:46:04.912Z,100175.17
2018-06-05T22:48:33.919Z,100172.70
2018-06-05T22:51:02.350Z,100173.27
2018-06-05T22:53:30.851Z,100165.61
2018-06-05T22:55:59.262Z,100165.05
2018-06-05T22:58:27.602Z,100168.05
2018-06-05T23:00:55.871Z,100162.06
2018-06-05T23:03:24.848Z,100165.34
2018-06-05T23:05:53.427Z,100161.77
2018-06-05T23:08:21.752Z,100165.04
2018-06-05T23:10:50.116Z,100164.77
2018-06-05T23:13:18.629Z,100166.95
2018-06-05T23:15:47.242Z,100168.85
2018-06-05T23:18:15.684Z,100163.94
2018-06-05T23:20:43.835Z,100160.41
2018-06-05T23:23:12.051Z,100158.23
2018-06-05T23:25:41.363Z,100154.67
2018-06-05T23:28:09.556Z,100154.67
2018-06-05T23:30:37.774Z,100165.81
2018-06-05T23:33:05.953Z,100167.47
2018-06-05T23:35:34.096Z,100166.88
2018-06-05T23:38:02.243Z,100163.34
2018-06-05T23:40:30.386Z,100166.61
2018-06-05T23:42:58.561Z,100164.41
2018-06-05T23:45:26.684Z,100170.08
2018-06-05T23:47:54.858Z,100166.48
2018-06-05T23:50:22.999Z,100160.00
2018-06-05T23:52:51.156Z,100159.73
2018-06-05T23:55:19.365Z,100156.72
2018-06-05T23:57:47.509Z,100159.14
